sensor_id;sensor_type;location;lat;lon;timestamp;pressure;altitude;pressure_sealevel;temperature;humidity
75317;BME280;63913;51.492;10.368;2024-01-30T00:01:12;99692.56;;;3.38;98.63
75317;BME280;63913;51.492;10.368;2024-01-30T00:03:37;99690.78;;;3.37;98.73
75317;BME280;63913;51.492;10.368;2024-01-30T00:06:05;99689.53;;;3.43;98.54
75317;BME280;63913;51.492;10.368;2024-01-30T00:08:31;99685.69;;;3.49;97.81
75317;BME280;63913;51.492;10.368;2024-01-30T00:10:56;99683.53;;;3.55;97.48
75317;BME280;63913;51.492;10.368;2024-01-30T00:13:21;99685.19;;;3.54;97.65
75317;BME280;63913;51.492;10.368;2024-01-30T00:15:48;99682.25;;;3.48;97.58
75317;BME280;63913;51.492;10.368;2024-01-30T00:18:13;99682.13;;;3.47;97.43
75317;BME280;63913;51.492;10.368;2024-01-30T00:20:39;99681.56;;;3.51;97.69
75317;BME280;63913;51.492;10.368;2024-01-30T00:23:04;99672.16;;;3.50;97.37
75317;BME280;63913;51.492;10.368;2024-01-30T00:25:30;99677.34;;;3.51;97.37
75317;BME280;63913;51.492;10.368;2024-01-30T00:27:55;99685.19;;;3.54;97.26
75317;BME280;63913;51.492;10.368;2024-01-30T00:30:21;99689.75;;;3.47;97.05
75317;BME280;63913;51.492;10.368;2024-01-30T00:32:46;99680.78;;;3.52;97.57
75317;BME280;63913;51.492;10.368;2024-01-30T00:35:11;99681.19;;;3.58;97.61
75317;BME280;63913;51.492;10.368;2024-01-30T00:37:37;99684.19;;;3.52;97.11
75317;BME280;63913;51.492;10.368;2024-01-30T00:40:03;99678.91;;;3.49;97.12
75317;BME280;63913;51.492;10.368;2024-01-30T00:42:28;99674.16;;;3.42;97.40
75317;BME280;63913;51.492;10.368;2024-01-30T00:44:54;99681.91;;;3.43;97.09
75317;BME280;63913;51.492;10.368;2024-01-30T00:47:19;99665.47;;;3.38;96.53
75317;BME280;63913;51.492;10.368;2024-01-30T00:49:44;99673.00;;;3.37;96.47
75317;BME280;63913;51.492;10.368;2024-01-30T00:52:10;99667.16;;;3.26;96.18
75317;BME280;63913;51.492;10.368;2024-01-30T00:54:35;99672.34;;;3.28;97.17
75317;BME280;63913;51.492;10.368;2024-01-30T00:57:00;99680.19;;;3.31;96.85
75317;BME280;63913;51.492;10.368;2024-01-30T00:59:26;99676.00;;;3.31;96.71
75317;BME280;63913;51.492;10.368;2024-01-30T01:01:51;99672.00;;;3.35;97.45
75317;BME280;63913;51.492;10.368;2024-01-30T01:04:17;99671.63;;;3.42;98.11
75317;BME280;63913;51.492;10.368;2024-01-30T01:06:42;99655.06;;;3.47;98.23
75317;BME280;63913;51.492;10.368;2024-01-30T01:09:10;99674.03;;;3.52;98.45
75317;BME280;63913;51.492;10.368;2024-01-30T01:11:36;99666.53;;;3.54;97.59
75317;BME280;63913;51.492;10.368;2024-01-30T01:14:03;99658.75;;;3.64;97.48
75317;BME280;63913;51.492;10.368;2024-01-30T01:16:28;99664.25;;;3.70;96.65
75317;BME280;63913;51.492;10.368;2024-01-30T01:18:54;99666.53;;;3.78;96.25
75317;BME280;63913;51.492;10.368;2024-01-30T01:21:19;99666.53;;;3.78;95.72
75317;BME280;63913;51.492;10.368;2024-01-30T01:23:44;99669.34;;;3.83;95.12
75317;BME280;63913;51.492;10.368;2024-01-30T01:26:10;99665.94;;;3.82;95.04
75317;BME280;63913;51.492;10.368;2024-01-30T01:28:35;99663.38;;;3.82;94.78
75317;BME280;63913;51.492;10.368;2024-01-30T01:31:00;99659.78;;;3.79;94.61
75317;BME280;63913;51.492;10.368;2024-01-30T01:33:31;99663.97;;;3.78;94.59
75317;BME280;63913;51.492;10.368;2024-01-30T01:35:58;99660.78;;;3.81;94.93
75317;BME280;63913;51.492;10.368;2024-01-30T01:38:23;99650.66;;;3.82;94.76
75317;BME280;63913;51.492;10.368;2024-01-30T01:40:49;99657.13;;;3.77;94.74
75317;BME280;63913;51.492;10.368;2024-01-30T01:43:14;99651.94;;;3.76;94.98
75317;BME280;63913;51.492;10.368;2024-01-30T01:45:39;99653.59;;;3.75;94.71
75317;BME280;63913;51.492;10.368;2024-01-30T01:48:05;99651.81;;;3.74;94.43
75317;BME280;63913;51.492;10.368;2024-01-30T01:50:31;99652.41;;;3.70;94.90
75317;BME280;63913;51.492;10.368;2024-01-30T01:52:56;99655.94;;;3.72;95.67
75317;BME280;63913;51.492;10.368;2024-01-30T01:55:22;99653.97;;;3.68;95.26
75317;BME280;63913;51.492;10.368;2024-01-30T01:57:49;99660.59;;;3.66;95.13
75317;BME280;63913;51.492;10.368;2024-01-30T02:00:15;99663.38;;;3.58;95.63
75317;BME280;63913;51.492;10.368;2024-01-30T02:02:43;99667.16;;;3.63;95.17
75317;BME280;63913;51.492;10.368;2024-01-30T02:05:08;99663.38;;;3.58;95.30
75317;BME280;63913;51.492;10.368;2024-01-30T02:07:34;99672.59;;;3.56;95.04
75317;BME280;63913;51.492;10.368;2024-01-30T02:09:59;99662.47;;;3.44;95.66
75317;BME280;63913;51.492;10.368;2024-01-30T02:12:25;99658.63;;;3.37;96.13
75317;BME280;63913;51.492;10.368;2024-01-30T02:14:50;99658.56;;;3.24;95.83
75317;BME280;63913;51.492;10.368;2024-01-30T02:17:16;99661.97;;;3.25;96.29
75317;BME280;63913;51.492;10.368;2024-01-30T02:19:41;99663.72;;;3.26;95.90
75317;BME280;63913;51.492;10.368;2024-01-30T02:22:07;99656.03;;;3.24;96.10
75317;BME280;63913;51.492;10.368;2024-01-30T02:24:33;99655.31;;;3.27;96.21
75317;BME280;63913;51.492;10.368;2024-01-30T02:26:58;99658.00;;;3.17;96.26
75317;BME280;63913;51.492;10.368;2024-01-30T02:29:24;99651.38;;;3.19;96.89
75317;BME280;63913;51.492;10.368;2024-01-30T02:31:49;99649.53;;;3.04;96.76
75317;BME280;63913;51.492;10.368;2024-01-30T02:34:14;99649.78;;;3.08;97.15
75317;BME280;63913;51.492;10.368;2024-01-30T02:36:43;99654.31;;;3.00;97.10
75317;BME280;63913;51.492;10.368;2024-01-30T02:39:09;99645.69;;;2.98;97.39
75317;BME280;63913;51.492;10.368;2024-01-30T02:41:35;99651.97;;;3.03;98.08
75317;BME280;63913;51.492;10.368;2024-01-30T02:44:01;99643.47;;;3.02;98.45
75317;BME280;63913;51.492;10.368;2024-01-30T02:46:26;99642.22;;;3.09;98.66
75317;BME280;63913;51.492;10.368;2024-01-30T02:48:52;99633.19;;;3.13;98.97
75317;BME280;63913;51.492;10.368;2024-01-30T02:51:17;99635.50;;;3.10;98.28
75317;BME280;63913;51.492;10.368;2024-01-30T02:53:42;99635.19;;;3.05;98.37
75317;BME280;63913;51.492;10.368;2024-01-30T02:56:07;99635.66;;;2.99;98.52
75317;BME280;63913;51.492;10.368;2024-01-30T02:58:35;99636.84;;;2.93;98.51
75317;BME280;63913;51.492;10.368;2024-01-30T03:01:01;99638.38;;;3.02;98.49
75317;BME280;63913;51.492;10.368;2024-01-30T03:03:27;99647.13;;;2.94;98.71
75317;BME280;63913;51.492;10.368;2024-01-30T03:05:52;99638.19;;;2.99;98.79
75317;BME280;63913;51.492;10.368;2024-01-30T03:08:17;99637.19;;;2.97;98.11
75317;BME280;63913;51.492;10.368;2024-01-30T03:10:43;99636.31;;;2.97;98.32
75317;BME280;63913;51.492;10.368;2024-01-30T03:13:08;99631.56;;;2.90;98.43
75317;BME280;63913;51.492;10.368;2024-01-30T03:15:33;99624.97;;;2.80;98.15
75317;BME280;63913;51.492;10.368;2024-01-30T03:17:59;99627.19;;;2.76;98.91
75317;BME280;63913;51.492;10.368;2024-01-30T03:20:24;99632.34;;;2.77;99.66
75317;BME280;63913;51.492;10.368;2024-01-30T03:22:49;99623.78;;;2.75;100.00
75317;BME280;63913;51.492;10.368;2024-01-30T03:25:15;99622.13;;;2.76;99.97
75317;BME280;63913;51.492;10.368;2024-01-30T03:27:40;99617.81;;;2.75;100.00
75317;BME280;63913;51.492;10.368;2024-01-30T03:30:06;99611.16;;;2.77;100.00
75317;BME280;63913;51.492;10.368;2024-01-30T03:32:32;99612.81;;;2.76;100.00
75317;BME280;63913;51.492;10.368;2024-01-30T03:34:57;99611.69;;;2.84;100.00
75317;BME280;63913;51.492;10.368;2024-01-30T03:37:23;99608.50;;;2.87;100.00
75317;BME280;63913;51.492;10.368;2024-01-30T03:39:49;99598.34;;;2.87;100.00
75317;BME280;63913;51.492;10.368;2024-01-30T03:42:14;99607.72;;;2.88;100.00
75317;BME280;63913;51.492;10.368;2024-01-30T03:44:40;99601.00;;;2.88;100.00
75317;BME280;63913;51.492;10.368;2024-01-30T03:47:05;99596.13;;;2.91;99.97
75317;BME280;63913;51.492;10.368;2024-01-30T03:49:30;99602.19;;;2.93;99.79
75317;BME280;63913;51.492;10.368;2024-01-30T03:51:56;99593.91;;;2.96;100.00
75317;BME280;63913;51.492;10.368;2024-01-30T03:54:21;99597.88;;;2.92;99.82
75317;BME280;63913;51.492;10.368;2024-01-30T03:56:46;99598.97;;;2.96;99.81
75317;BME280;63913;51.492;10.368;2024-01-30T03:59:12;99599.41;;;3.02;99.27
75317;BME280;63913;51.492;10.368;2024-01-30T04:01:37;99597.09;;;3.05;98.62
75317;BME280;63913;51.492;10.368;2024-01-30T04:04:03;99593.34;;;3.00;98.66
75317;BME280;63913;51.492;10.368;2024-01-30T04:06:28;99594.53;;;3.05;98.90
75317;BME280;63913;51.492;10.368;2024-01-30T04:08:53;99594.06;;;3.11;97.88
75317;BME280;63913;51.492;10.368;2024-01-30T04:11:19;99592.78;;;3.04;97.89
75317;BME280;63913;51.492;10.368;2024-01-30T04:13:45;99597.97;;;3.05;97.94
75317;BME280;63913;51.492;10.368;2024-01-30T04:16:21;99592.66;;;3.02;97.93
75317;BME280;63913;51.492;10.368;2024-01-30T04:18:47;99586.81;;;3.03;98.11
75317;BME280;63913;51.492;10.368;2024-01-30T04:21:13;99583.97;;;2.99;97.89
75317;BME280;63913;51.492;10.368;2024-01-30T04:23:39;99588.56;;;3.04;97.39
75317;BME280;63913;51.492;10.368;2024-01-30T04:26:05;99588.00;;;3.08;97.13
75317;BME280;63913;51.492;10.368;2024-01-30T04:28:30;99578.63;;;3.08;96.82
75317;BME280;63913;51.492;10.368;2024-01-30T04:30:56;99581.38;;;3.11;96.58
75317;BME280;63913;51.492;10.368;2024-01-30T04:33:21;99584.38;;;3.05;96.76
75317;BME280;63913;51.492;10.368;2024-01-30T04:35:46;99581.50;;;3.00;96.78
75317;BME280;63913;51.492;10.368;2024-01-30T04:38:12;99579.31;;;2.93;97.24
75317;BME280;63913;51.492;10.368;2024-01-30T04:40:37;99581.56;;;2.89;97.39
75317;BME280;63913;51.492;10.368;2024-01-30T04:43:02;99585.41;;;2.95;97.34
75317;BME280;63913;51.492;10.368;2024-01-30T04:45:28;99577.47;;;2.91;97.54
75317;BME280;63913;51.492;10.368;2024-01-30T04:47:53;99580.00;;;2.91;97.55
75317;BME280;63913;51.492;10.368;2024-01-30T04:50:18;99581.03;;;2.81;97.61
75317;BME280;63913;51.492;10.368;2024-01-30T04:52:44;99580.25;;;2.82;97.23
75317;BME280;63913;51.492;10.368;2024-01-30T04:55:09;99587.19;;;2.85;97.40
75317;BME280;63913;51.492;10.368;2024-01-30T04:57:34;99584.97;;;2.89;97.19
75317;BME280;63913;51.492;10.368;2024-01-30T05:00:00;99575.13;;;2.94;97.69
75317;BME280;63913;51.492;10.368;2024-01-30T05:02:25;99583.97;;;2.99;97.17
75317;BME280;63913;51.492;10.368;2024-01-30T05:04:51;99585.81;;;3.01;96.42
75317;BME280;63913;51.492;10.368;2024-01-30T05:07:16;99598.97;;;2.96;96.84
75317;BME280;63913;51.492;10.368;2024-01-30T05:09:41;99588.94;;;2.97;96.38
75317;BME280;63913;51.492;10.368;2024-01-30T05:12:07;99592.25;;;2.96;96.45
75317;BME280;63913;51.492;10.368;2024-01-30T05:14:32;99590.47;;;2.95;96.53
75317;BME280;63913;51.492;10.368;2024-01-30T05:16:58;99603.19;;;2.95;96.36
75317;BME280;63913;51.492;10.368;2024-01-30T05:19:23;99602.28;;;2.95;96.20
75317;BME280;63913;51.492;10.368;2024-01-30T05:21:49;99589.59;;;2.95;96.49
75317;BME280;63913;51.492;10.368;2024-01-30T05:24:14;99598.97;;;2.96;96.17
75317;BME280;63913;51.492;10.368;2024-01-30T05:26:40;99602.19;;;2.93;95.73
75317;BME280;63913;51.492;10.368;2024-01-30T05:29:06;99609.59;;;2.90;95.11
75317;BME280;63913;51.492;10.368;2024-01-30T05:31:31;99606.84;;;2.87;95.78
75317;BME280;63913;51.492;10.368;2024-01-30T05:33:57;99603.75;;;2.91;95.63
75317;BME280;63913;51.492;10.368;2024-01-30T05:36:22;99599.22;;;2.87;95.34
75317;BME280;63913;51.492;10.368;2024-01-30T05:38:47;99602.34;;;2.83;95.69
75317;BME280;63913;51.492;10.368;2024-01-30T05:41:13;99598.69;;;2.80;95.65
75317;BME280;63913;51.492;10.368;2024-01-30T05:43:38;99605.88;;;2.74;96.34
75317;BME280;63913;51.492;10.368;2024-01-30T05:46:03;99606.97;;;2.77;96.09
75317;BME280;63913;51.492;10.368;2024-01-30T05:48:29;99596.59;;;2.74;96.23
75317;BME280;63913;51.492;10.368;2024-01-30T05:50:54;99599.56;;;2.80;96.13
75317;BME280;63913;51.492;10.368;2024-01-30T05:53:20;99595.91;;;2.77;95.93
75317;BME280;63913;51.492;10.368;2024-01-30T05:55:45;99598.91;;;2.71;95.65
75317;BME280;63913;51.492;10.368;2024-01-30T05:58:11;99601.69;;;2.74;95.72
75317;BME280;63913;51.492;10.368;2024-01-30T06:00:36;99596.06;;;2.66;95.42
75317;BME280;63913;51.492;10.368;2024-01-30T06:03:02;99599.03;;;2.61;95.84
75317;BME280;63913;51.492;10.368;2024-01-30T06:05:27;99596.50;;;2.61;96.33
75317;BME280;63913;51.492;10.368;2024-01-30T06:07:53;99598.38;;;2.63;95.87
75317;BME280;63913;51.492;10.368;2024-01-30T06:10:18;99605.00;;;2.61;95.60
75317;BME280;63913;51.492;10.368;2024-01-30T06:12:44;99599.91;;;2.61;95.56
75317;BME280;63913;51.492;10.368;2024-01-30T06:15:09;99602.47;;;2.61;95.22
75317;BME280;63913;51.492;10.368;2024-01-30T06:17:35;99604.47;;;2.65;95.09
75317;BME280;63913;51.492;10.368;2024-01-30T06:20:00;99605.47;;;2.67;95.09
75317;BME280;63913;51.492;10.368;2024-01-30T06:22:26;99594.72;;;2.72;94.29
75317;BME280;63913;51.492;10.368;2024-01-30T06:24:51;99605.13;;;2.75;94.25
75317;BME280;63913;51.492;10.368;2024-01-30T06:27:16;99602.47;;;2.73;94.13
75317;BME280;63913;51.492;10.368;2024-01-30T06:29:43;99595.72;;;2.74;94.05
75317;BME280;63913;51.492;10.368;2024-01-30T06:32:08;99599.81;;;2.72;94.24
75317;BME280;63913;51.492;10.368;2024-01-30T06:34:34;99591.78;;;2.65;94.44
75317;BME280;63913;51.492;10.368;2024-01-30T06:36:59;99587.88;;;2.71;94.34
75317;BME280;63913;51.492;10.368;2024-01-30T06:39:26;99589.66;;;2.72;94.44
75317;BME280;63913;51.492;10.368;2024-01-30T06:41:51;99601.47;;;2.71;94.37
75317;BME280;63913;51.492;10.368;2024-01-30T06:44:16;99597.72;;;2.66;94.48
75317;BME280;63913;51.492;10.368;2024-01-30T06:46:42;99590.00;;;2.64;94.48
75317;BME280;63913;51.492;10.368;2024-01-30T06:49:07;99602.13;;;2.68;94.70
75317;BME280;63913;51.492;10.368;2024-01-30T06:51:32;99591.88;;;2.67;94.42
75317;BME280;63913;51.492;10.368;2024-01-30T06:53:58;99600.25;;;2.66;94.44
75317;BME280;63913;51.492;10.368;2024-01-30T06:56:23;99593.00;;;2.59;95.09
75317;BME280;63913;51.492;10.368;2024-01-30T06:58:49;99598.28;;;2.62;95.19
75317;BME280;63913;51.492;10.368;2024-01-30T07:01:15;99600.91;;;2.63;95.26
75317;BME280;63913;51.492;10.368;2024-01-30T07:03:41;99597.38;;;2.61;95.41
75317;BME280;63913;51.492;10.368;2024-01-30T07:06:07;99595.63;;;2.60;95.35
75317;BME280;63913;51.492;10.368;2024-01-30T07:08:32;99594.53;;;2.57;95.31
75317;BME280;63913;51.492;10.368;2024-01-30T07:10:58;99597.72;;;2.66;95.38
75317;BME280;63913;51.492;10.368;2024-01-30T07:13:23;99600.13;;;2.76;95.19
75317;BME280;63913;51.492;10.368;2024-01-30T07:15:49;99590.19;;;2.79;94.79
75317;BME280;63913;51.492;10.368;2024-01-30T07:18:14;99602.00;;;2.79;94.74
75317;BME280;63913;51.492;10.368;2024-01-30T07:20:40;99600.75;;;2.85;94.50
75317;BME280;63913;51.492;10.368;2024-01-30T07:23:15;99599.22;;;2.87;94.30
75317;BME280;63913;51.492;10.368;2024-01-30T07:25:46;99596.69;;;2.87;94.39
75317;BME280;63913;51.492;10.368;2024-01-30T07:28:14;99600.69;;;2.84;94.94
75317;BME280;63913;51.492;10.368;2024-01-30T07:30:42;99595.03;;;2.88;94.64
75317;BME280;63913;51.492;10.368;2024-01-30T07:33:07;99597.44;;;2.98;94.53
75317;BME280;63913;51.492;10.368;2024-01-30T07:35:33;99591.47;;;2.97;94.38
75317;BME280;63913;51.492;10.368;2024-01-30T07:37:59;99595.97;;;3.01;94.54
75317;BME280;63913;51.492;10.368;2024-01-30T07:40:24;99593.25;;;2.98;95.07
75317;BME280;63913;51.492;10.368;2024-01-30T07:42:49;99586.91;;;3.05;94.79
75317;BME280;63913;51.492;10.368;2024-01-30T07:45:15;99594.75;;;3.08;94.59
75317;BME280;63913;51.492;10.368;2024-01-30T07:47:40;99584.03;;;3.12;94.64
75317;BME280;63913;51.492;10.368;2024-01-30T07:50:07;99594.41;;;3.15;95.08
75317;BME280;63913;51.492;10.368;2024-01-30T07:52:33;99585.91;;;3.15;94.97
75317;BME280;63913;51.492;10.368;2024-01-30T07:54:58;99584.78;;;3.11;95.61
75317;BME280;63913;51.492;10.368;2024-01-30T07:57:23;99584.75;;;3.23;95.77
75317;BME280;63913;51.492;10.368;2024-01-30T07:59:49;99579.47;;;3.20;95.99
75317;BME280;63913;51.492;10.368;2024-01-30T08:02:15;99578.47;;;3.18;96.42
75317;BME280;63913;51.492;10.368;2024-01-30T08:04:40;99576.16;;;3.21;96.24
75317;BME280;63913;51.492;10.368;2024-01-30T08:07:06;99582.41;;;3.26;96.27
75317;BME280;63913;51.492;10.368;2024-01-30T08:09:31;99582.41;;;3.26;96.48
75317;BME280;63913;51.492;10.368;2024-01-30T08:11:56;99585.28;;;3.30;96.85
75317;BME280;63913;51.492;10.368;2024-01-30T08:14:22;99574.97;;;3.40;96.40
75317;BME280;63913;51.492;10.368;2024-01-30T08:16:47;99571.84;;;3.44;96.52
75317;BME280;63913;51.492;10.368;2024-01-30T08:19:14;99570.19;;;3.45;97.13
75317;BME280;63913;51.492;10.368;2024-01-30T08:21:40;99576.66;;;3.53;96.75
75317;BME280;63913;51.492;10.368;2024-01-30T08:24:06;99575.78;;;3.53;96.95
75317;BME280;63913;51.492;10.368;2024-01-30T08:26:32;99580.19;;;3.55;97.22
75317;BME280;63913;51.492;10.368;2024-01-30T08:28:57;99580.59;;;3.61;97.87
75317;BME280;63913;51.492;10.368;2024-01-30T08:31:23;99575.44;;;3.73;97.74
75317;BME280;63913;51.492;10.368;2024-01-30T08:33:48;99580.44;;;3.84;97.19
75317;BME280;63913;51.492;10.368;2024-01-30T08:36:15;99581.94;;;3.94;96.58
75317;BME280;63913;51.492;10.368;2024-01-30T08:38:40;99572.25;;;4.02;96.16
75317;BME280;63913;51.492;10.368;2024-01-30T08:41:07;99571.66;;;4.06;96.50
75317;BME280;63913;51.492;10.368;2024-01-30T08:43:33;99583.91;;;4.11;95.98
75317;BME280;63913;51.492;10.368;2024-01-30T08:46:01;99575.56;;;4.14;95.76
75317;BME280;63913;51.492;10.368;2024-01-30T08:48:26;99570.91;;;4.20;95.49
75317;BME280;63913;51.492;10.368;2024-01-30T08:50:52;99568.13;;;4.30;94.67
75317;BME280;63913;51.492;10.368;2024-01-30T08:53:17;99578.91;;;4.39;93.95
75317;BME280;63913;51.492;10.368;2024-01-30T08:55:43;99572.63;;;4.47;93.69
75317;BME280;63913;51.492;10.368;2024-01-30T08:58:09;99572.66;;;4.60;93.36
75317;BME280;63913;51.492;10.368;2024-01-30T09:00:34;99573.50;;;4.74;93.17
75317;BME280;63913;51.492;10.368;2024-01-30T09:03:00;99572.19;;;4.81;92.90
75317;BME280;63913;51.492;10.368;2024-01-30T09:05:25;99574.28;;;4.86;93.37
75317;BME280;63913;51.492;10.368;2024-01-30T09:07:50;99574.59;;;5.06;92.70
75317;BME280;63913;51.492;10.368;2024-01-30T09:10:16;99570.25;;;5.18;92.55
75317;BME280;63913;51.492;10.368;2024-01-30T09:12:41;99580.06;;;5.40;91.47
75317;BME280;63913;51.492;10.368;2024-01-30T09:15:07;99580.28;;;5.57;89.72
75317;BME280;63913;51.492;10.368;2024-01-30T09:17:32;99581.81;;;5.83;88.35
75317;BME280;63913;51.492;10.368;2024-01-30T09:19:58;99580.97;;;5.97;87.26
75317;BME280;63913;51.492;10.368;2024-01-30T09:22:24;99579.19;;;6.11;86.22
75317;BME280;63913;51.492;10.368;2024-01-30T09:24:49;99578.56;;;6.15;86.08
75317;BME280;63913;51.492;10.368;2024-01-30T09:27:15;99587.47;;;6.22;85.67
75317;BME280;63913;51.492;10.368;2024-01-30T09:29:40;99581.66;;;6.24;84.62
75317;BME280;63913;51.492;10.368;2024-01-30T09:32:05;99593.19;;;6.32;84.71
75317;BME280;63913;51.492;10.368;2024-01-30T09:34:32;99584.00;;;6.36;83.76
75317;BME280;63913;51.492;10.368;2024-01-30T09:36:58;99585.41;;;6.45;83.50
75317;BME280;63913;51.492;10.368;2024-01-30T09:39:24;99584.94;;;6.53;83.00
75317;BME280;63913;51.492;10.368;2024-01-30T09:44:19;99579.84;;;6.53;83.21
75317;BME280;63913;51.492;10.368;2024-01-30T09:46:47;99579.91;;;6.54;82.52
75317;BME280;63913;51.492;10.368;2024-01-30T09:49:13;99577.50;;;6.57;82.78
75317;BME280;63913;51.492;10.368;2024-01-30T09:51:39;99575.22;;;6.62;82.82
75317;BME280;63913;51.492;10.368;2024-01-30T09:54:07;99582.25;;;6.66;82.66
75317;BME280;63913;51.492;10.368;2024-01-30T09:56:33;99585.50;;;6.78;81.86
75317;BME280;63913;51.492;10.368;2024-01-30T09:58:58;99587.25;;;6.79;82.01
75317;BME280;63913;51.492;10.368;2024-01-30T10:01:25;99594.19;;;6.81;82.06
75317;BME280;63913;51.492;10.368;2024-01-30T10:03:50;99594.38;;;6.84;82.02
75317;BME280;63913;51.492;10.368;2024-01-30T10:06:18;99595.34;;;6.86;81.90
75317;BME280;63913;51.492;10.368;2024-01-30T10:08:44;99593.81;;;6.90;82.44
75317;BME280;63913;51.492;10.368;2024-01-30T10:11:09;99595.44;;;6.88;82.89
75317;BME280;63913;51.492;10.368;2024-01-30T10:13:35;99593.91;;;6.92;82.78
75317;BME280;63913;51.492;10.368;2024-01-30T10:16:00;99592.50;;;6.97;82.75
75317;BME280;63913;51.492;10.368;2024-01-30T10:18:28;99595.19;;;7.00;82.70
75317;BME280;63913;51.492;10.368;2024-01-30T10:20:54;99596.06;;;7.00;83.03
75317;BME280;63913;51.492;10.368;2024-01-30T10:23:19;99590.34;;;7.04;83.04
75317;BME280;63913;51.492;10.368;2024-01-30T10:25:45;99589.59;;;7.07;83.41
75317;BME280;63913;51.492;10.368;2024-01-30T10:28:11;99584.09;;;7.15;83.47
75317;BME280;63913;51.492;10.368;2024-01-30T10:30:36;99592.03;;;7.20;83.68
75317;BME280;63913;51.492;10.368;2024-01-30T10:33:02;99596.50;;;7.24;83.02
75317;BME280;63913;51.492;10.368;2024-01-30T10:35:27;99590.84;;;7.30;82.48
75317;BME280;63913;51.492;10.368;2024-01-30T10:37:55;99585.78;;;7.31;82.11
75317;BME280;63913;51.492;10.368;2024-01-30T10:40:27;99585.56;;;7.43;82.06
75317;BME280;63913;51.492;10.368;2024-01-30T10:42:55;99593.41;;;7.46;81.32
75317;BME280;63913;51.492;10.368;2024-01-30T10:45:22;99585.66;;;7.44;81.40
75317;BME280;63913;51.492;10.368;2024-01-30T10:47:53;99580.44;;;7.43;81.51
75317;BME280;63913;51.492;10.368;2024-01-30T10:50:19;99575.22;;;7.57;80.27
75317;BME280;63913;51.492;10.368;2024-01-30T10:52:46;99569.69;;;7.66;80.86
75317;BME280;63913;51.492;10.368;2024-01-30T10:55:12;99575.47;;;7.62;81.02
75317;BME280;63913;51.492;10.368;2024-01-30T10:57:39;99565.97;;;7.59;80.12
75317;BME280;63913;51.492;10.368;2024-01-30T11:00:08;99564.38;;;7.61;80.22
75317;BME280;63913;51.492;10.368;2024-01-30T11:02:43;99560.19;;;7.63;79.15
75317;BME280;63913;51.492;10.368;2024-01-30T11:05:10;99560.34;;;7.66;78.48
75317;BME280;63913;51.492;10.368;2024-01-30T11:07:36;99555.22;;;7.66;79.10
75317;BME280;63913;51.492;10.368;2024-01-30T11:10:04;99550.09;;;7.66;79.48
75317;BME280;63913;51.492;10.368;2024-01-30T11:12:33;99551.28;;;7.73;78.75
75317;BME280;63913;51.492;10.368;2024-01-30T11:15:16;99552.00;;;7.71;78.99
75317;BME280;63913;51.492;10.368;2024-01-30T11:17:52;99547.22;;;7.77;79.56
75317;BME280;63913;51.492;10.368;2024-01-30T11:20:30;99540.72;;;7.83;78.42
75317;BME280;63913;51.492;10.368;2024-01-30T11:23:01;99541.44;;;7.81;78.75
75317;BME280;63913;51.492;10.368;2024-01-30T11:25:31;99539.66;;;7.80;79.46
75317;BME280;63913;51.492;10.368;2024-01-30T11:27:57;99534.63;;;7.81;79.18
75317;BME280;63913;51.492;10.368;2024-01-30T11:30:27;99538.16;;;7.83;79.74
75317;BME280;63913;51.492;10.368;2024-01-30T11:35:24;99529.66;;;7.84;79.81
75317;BME280;63913;51.492;10.368;2024-01-30T11:37:50;99522.28;;;7.90;78.71
75317;BME280;63913;51.492;10.368;2024-01-30T11:40:16;99524.34;;;7.97;78.31
75317;BME280;63913;51.492;10.368;2024-01-30T11:42:42;99523.16;;;7.91;79.08
75317;BME280;63913;51.492;10.368;2024-01-30T11:45:07;99512.91;;;7.91;78.99
75317;BME280;63913;51.492;10.368;2024-01-30T11:47:35;99508.88;;;7.96;78.71
75317;BME280;63913;51.492;10.368;2024-01-30T11:50:01;99517.53;;;7.98;78.79
75317;BME280;63913;51.492;10.368;2024-01-30T11:52:26;99501.16;;;7.94;79.47
75317;BME280;63913;51.492;10.368;2024-01-30T11:54:53;99507.44;;;8.01;78.67
75317;BME280;63913;51.492;10.368;2024-01-30T11:57:19;99501.56;;;8.03;78.12
75317;BME280;63913;51.492;10.368;2024-01-30T11:59:44;99498.66;;;8.14;77.59
75317;BME280;63913;51.492;10.368;2024-01-30T12:02:15;99500.41;;;8.15;78.12
75317;BME280;63913;51.492;10.368;2024-01-30T12:04:41;99493.41;;;8.11;78.41
75317;BME280;63913;51.492;10.368;2024-01-30T12:07:06;99495.72;;;8.06;78.57
75317;BME280;63913;51.492;10.368;2024-01-30T12:09:32;99496.44;;;8.03;79.30
75317;BME280;63913;51.492;10.368;2024-01-30T12:11:57;99498.13;;;8.03;79.63
75317;BME280;63913;51.492;10.368;2024-01-30T12:14:23;99504.00;;;8.00;79.40
75317;BME280;63913;51.492;10.368;2024-01-30T12:16:50;99510.56;;;7.95;79.32
75317;BME280;63913;51.492;10.368;2024-01-30T12:19:24;99512.50;;;7.99;79.04
75317;BME280;63913;51.492;10.368;2024-01-30T12:21:57;99509.63;;;8.11;78.45
75317;BME280;63913;51.492;10.368;2024-01-30T12:24:25;99514.47;;;8.05;78.98
75317;BME280;63913;51.492;10.368;2024-01-30T12:26:50;99522.94;;;8.04;79.05
75317;BME280;63913;51.492;10.368;2024-01-30T12:29:17;99524.56;;;8.02;79.14
75317;BME280;63913;51.492;10.368;2024-01-30T12:31:42;99520.19;;;7.99;80.25
75317;BME280;63913;51.492;10.368;2024-01-30T12:34:09;99519.09;;;7.94;80.13
75317;BME280;63913;51.492;10.368;2024-01-30T12:36:34;99508.69;;;7.91;79.75
75317;BME280;63913;51.492;10.368;2024-01-30T12:39:01;99516.38;;;7.91;79.86
75317;BME280;63913;51.492;10.368;2024-01-30T12:41:26;99511.25;;;7.91;79.49
75317;BME280;63913;51.492;10.368;2024-01-30T12:43:54;99505.88;;;7.87;79.84
75317;BME280;63913;51.492;10.368;2024-01-30T12:46:19;99507.72;;;7.89;80.11
75317;BME280;63913;51.492;10.368;2024-01-30T12:48:45;99503.31;;;7.87;80.33
75317;BME280;63913;51.492;10.368;2024-01-30T12:51:10;99489.66;;;7.86;79.83
75317;BME280;63913;51.492;10.368;2024-01-30T12:53:36;99492.28;;;7.88;79.66
75317;BME280;63913;51.492;10.368;2024-01-30T12:56:01;99498.88;;;8.00;78.37
75317;BME280;63913;51.492;10.368;2024-01-30T12:58:26;99493.59;;;7.97;78.96